createdAt,value
2019-05-16T00:01:53.639Z,52.73
2019-05-16T00:05:58.583Z,53.21
2019-05-16T00:10:04.962Z,52.66
2019-05-16T00:14:09.838Z,52.45
2019-05-16T00:18:14.735Z,52.53
2019-05-16T00:22:19.627Z,51.82
2019-05-16T00:26:24.527Z,51.57
2019-05-16T00:30:29.420Z,51.42
2019-05-16T00:34:34.309Z,51.34
2019-05-16T00:38:39.204Z,51.16
2019-05-16T00:42:44.110Z,51.73
2019-05-16T00:46:49.005Z,52.77
2019-05-16T00:50:53.910Z,54.66
2019-05-16T00:54:58.805Z,56.44
2019-05-16T00:59:05.123Z,56.88
2019-05-16T01:03:10.012Z,57.20
2019-05-16T01:07:14.904Z,57.53
2019-05-16T01:11:19.791Z,58.20
2019-05-16T01:15:24.681Z,58.68
2019-05-16T01:19:29.553Z,59.24
2019-05-16T01:23:34.444Z,60.37
2019-05-16T01:27:39.336Z,61.23
2019-05-16T01:31:44.220Z,61.99
2019-05-16T01:35:49.104Z,62.30
2019-05-16T01:39:53.983Z,61.76
2019-05-16T01:43:58.872Z,61.99
2019-05-16T01:48:03.768Z,62.11
2019-05-16T01:52:08.711Z,61.99
2019-05-16T01:56:14.606Z,61.90
2019-05-16T02:00:24.991Z,61.90
2019-05-16T02:04:28.635Z,62.08
2019-05-16T02:08:33.363Z,62.09
2019-05-16T02:12:38.732Z,61.75
2019-05-16T02:16:44.748Z,61.94
2019-05-16T02:20:49.639Z,62.48
2019-05-16T02:24:54.523Z,62.22
2019-05-16T02:29:00.844Z,61.48
2019-05-16T02:33:05.891Z,60.75
2019-05-16T02:37:23.617Z,60.46
2019-05-16T02:41:17.359Z,60.42
2019-05-16T02:45:24.627Z,60.94
2019-05-16T02:49:30.695Z,60.66
2019-05-16T02:53:35.657Z,60.57
2019-05-16T02:57:41.466Z,60.88
2019-05-16T03:01:46.816Z,61.03
2019-05-16T03:05:53.641Z,61.16
2019-05-16T03:10:01.504Z,61.28
2019-05-16T03:14:05.812Z,61.20
2019-05-16T03:18:12.310Z,61.30
2019-05-16T03:22:22.038Z,61.54
2019-05-16T03:26:25.350Z,61.49
2019-05-16T03:30:35.303Z,61.15
2019-05-16T03:34:36.824Z,61.08
2019-05-16T03:38:41.712Z,61.57
2019-05-16T03:42:46.593Z,61.98
2019-05-16T03:46:51.935Z,62.18
2019-05-16T03:50:56.955Z,62.11
2019-05-16T03:55:02.180Z,62.02
2019-05-16T03:59:07.103Z,62.09
2019-05-16T04:03:11.990Z,62.24
2019-05-16T04:07:16.872Z,62.17
2019-05-16T04:11:23.547Z,62.44
2019-05-16T04:15:31.099Z,62.33
2019-05-16T04:19:35.289Z,62.65
2019-05-16T04:23:41.950Z,62.55
2019-05-16T04:27:46.753Z,62.21
2019-05-16T04:31:51.635Z,62.20
2019-05-16T04:35:56.525Z,62.53
2019-05-16T04:40:01.924Z,62.22
2019-05-16T04:44:06.899Z,62.34
2019-05-16T04:48:11.802Z,62.27
2019-05-16T04:52:16.678Z,62.14
2019-05-16T04:56:21.996Z,61.67
2019-05-16T05:00:27.280Z,61.67
2019-05-16T05:04:32.172Z,62.01
2019-05-16T05:08:53.019Z,61.56
2019-05-16T05:12:43.642Z,58.16
2019-05-16T05:16:50.706Z,57.55
2019-05-16T05:20:55.110Z,57.23
2019-05-16T05:25:00.284Z,57.19
2019-05-16T05:29:05.251Z,56.37
2019-05-16T05:33:11.209Z,56.58
2019-05-16T05:37:16.106Z,57.12
2019-05-16T05:41:20.992Z,56.58
2019-05-16T05:45:25.872Z,56.13
2019-05-16T05:49:30.760Z,56.31
2019-05-16T05:53:35.650Z,55.61
2019-05-16T05:57:40.746Z,54.77
2019-05-16T06:01:45.602Z,53.50
2019-05-16T06:05:50.753Z,53.50
2019-05-16T06:09:56.724Z,53.28
2019-05-16T06:14:01.784Z,52.34
2019-05-16T06:18:06.681Z,52.99
2019-05-16T06:22:11.572Z,52.41
2019-05-16T06:26:16.449Z,50.74
2019-05-16T06:30:21.677Z,50.53
2019-05-16T06:34:27.536Z,50.26
2019-05-16T06:38:32.428Z,48.64
2019-05-16T06:42:37.326Z,50.01
2019-05-16T06:46:56.140Z,49.34
2019-05-16T06:50:51.422Z,49.10
2019-05-16T06:54:55.453Z,47.19
2019-05-16T06:59:00.893Z,48.04
2019-05-16T07:03:05.824Z,47.25
2019-05-16T07:07:12.666Z,44.88
2019-05-16T07:11:17.304Z,44.15
2019-05-16T07:15:22.262Z,44.86
2019-05-16T07:19:27.157Z,44.71
2019-05-16T07:23:32.051Z,43.64
2019-05-16T07:27:36.953Z,43.44
2019-05-16T07:31:41.839Z,43.45
2019-05-16T07:35:46.731Z,43.88
2019-05-16T07:39:51.622Z,43.37
2019-05-16T07:43:56.515Z,43.23
2019-05-16T07:48:01.405Z,42.91
2019-05-16T07:52:06.303Z,43.20
2019-05-16T07:56:11.200Z,42.39
2019-05-16T08:00:17.039Z,42.00
2019-05-16T08:04:21.939Z,42.58
2019-05-16T08:08:26.821Z,42.52
2019-05-16T08:12:33.043Z,41.81
2019-05-16T08:16:40.544Z,42.80
2019-05-16T08:20:44.717Z,42.83
2019-05-16T08:24:50.502Z,41.74
2019-05-16T08:28:55.461Z,41.57
2019-05-16T08:33:02.389Z,42.40
2019-05-16T08:37:30.636Z,42.24
2019-05-16T08:41:17.100Z,41.64
2019-05-16T08:45:21.288Z,42.38
2019-05-16T08:49:26.346Z,43.22
2019-05-16T08:53:31.809Z,43.22
2019-05-16T08:57:37.020Z,42.69
2019-05-16T09:01:50.741Z,43.11
2019-05-16T09:05:48.502Z,42.37
2019-05-16T09:09:53.398Z,42.81
2019-05-16T09:13:58.289Z,42.39
2019-05-16T09:18:03.181Z,43.45
2019-05-16T09:22:08.079Z,43.07
2019-05-16T09:26:16.035Z,43.98
2019-05-16T09:30:19.637Z,43.57
2019-05-16T09:34:24.531Z,44.04
2019-05-16T09:38:29.435Z,43.78
2019-05-16T09:42:37.027Z,43.61
2019-05-16T09:46:41.078Z,42.66
2019-05-16T09:50:46.924Z,42.59
2019-05-16T09:54:51.911Z,43.22
2019-05-16T09:58:57.391Z,43.31
2019-05-16T10:03:02.588Z,43.43
2019-05-16T10:07:07.552Z,43.84
2019-05-16T10:11:12.444Z,42.38
2019-05-16T10:15:17.747Z,43.42
2019-05-16T10:19:22.569Z,42.80
2019-05-16T10:23:28.406Z,43.70
2019-05-16T10:27:33.441Z,42.83
2019-05-16T10:31:48.580Z,42.91
2019-05-16T10:35:48.014Z,43.17
2019-05-16T10:39:52.592Z,43.18
2019-05-16T10:43:57.486Z,43.08
2019-05-16T10:48:02.387Z,43.70
2019-05-16T10:52:07.447Z,43.31
2019-05-16T10:56:13.332Z,43.42
2019-05-16T11:00:41.442Z,43.41
2019-05-16T11:04:31.778Z,44.95
2019-05-16T11:08:31.748Z,45.75
2019-05-16T11:12:47.768Z,45.93
2019-05-16T11:16:43.262Z,44.80
2019-05-16T11:20:49.151Z,47.02
2019-05-16T11:24:56.533Z,46.36
2019-05-16T11:29:02.019Z,45.79
2019-05-16T11:33:07.649Z,45.24
2019-05-16T11:37:13.813Z,44.85
2019-05-16T11:41:18.748Z,43.54
2019-05-16T11:45:27.063Z,43.52
2019-05-16T11:49:31.317Z,44.60
2019-05-16T11:53:37.896Z,44.60
2019-05-16T11:57:42.970Z,42.70
2019-05-16T12:01:47.874Z,43.62
2019-05-16T12:05:52.764Z,42.69
2019-05-16T12:09:57.659Z,41.96
2019-05-16T12:14:02.564Z,41.92
2019-05-16T12:18:08.508Z,42.78
2019-05-16T12:22:13.750Z,42.53
2019-05-16T12:26:18.642Z,41.95
2019-05-16T12:30:24.604Z,42.16
2019-05-16T12:34:29.498Z,42.69
2019-05-16T12:38:34.383Z,43.55
2019-05-16T12:42:39.348Z,44.16
2019-05-16T12:46:47.266Z,43.93
2019-05-16T12:50:51.598Z,44.10
2019-05-16T12:54:57.048Z,43.35
2019-05-16T12:59:02.065Z,44.05
2019-05-16T13:03:07.372Z,43.21
2019-05-16T13:07:12.351Z,43.28
2019-05-16T13:11:17.770Z,43.53
2019-05-16T13:15:22.806Z,43.58
2019-05-16T13:19:32.842Z,43.71
2019-05-16T13:23:34.317Z,44.92
2019-05-16T13:27:39.222Z,45.76
2019-05-16T13:31:44.115Z,45.90
2019-05-16T13:35:49.014Z,46.58
2019-05-16T13:39:53.907Z,48.16
2019-05-16T13:43:58.804Z,49.92
2019-05-16T13:48:03.700Z,50.20
2019-05-16T13:52:08.592Z,50.20
2019-05-16T13:56:13.815Z,50.61
2019-05-16T14:00:19.405Z,53.42
2019-05-16T14:04:26.337Z,54.71
2019-05-16T14:08:30.910Z,55.06
2019-05-16T14:12:36.723Z,55.14
2019-05-16T14:16:41.778Z,56.36
2019-05-16T14:20:46.877Z,56.36
2019-05-16T14:24:51.741Z,57.87
2019-05-16T14:28:57.778Z,58.61
2019-05-16T14:33:03.264Z,59.58
2019-05-16T14:37:08.238Z,61.07
2019-05-16T14:41:13.123Z,62.42
2019-05-16T14:45:19.050Z,62.84
2019-05-16T14:49:23.959Z,62.71
2019-05-16T14:53:28.854Z,60.76
2019-05-16T14:57:33.750Z,59.54
2019-05-16T15:01:38.643Z,59.66
2019-05-16T15:05:44.613Z,59.44
2019-05-16T15:09:50.586Z,59.19
2019-05-16T15:13:57.441Z,58.75
2019-05-16T15:18:02.081Z,58.39
2019-05-16T15:22:07.873Z,58.33
2019-05-16T15:26:13.120Z,58.48
2019-05-16T15:30:18.852Z,59.30
2019-05-16T15:34:23.752Z,60.12
2019-05-16T15:38:28.642Z,61.04
2019-05-16T15:42:33.533Z,62.04
2019-05-16T15:46:38.427Z,63.45
2019-05-16T15:50:43.394Z,64.95
2019-05-16T15:54:50.503Z,65.11
2019-05-16T15:58:55.403Z,65.43
2019-05-16T16:03:00.300Z,65.79
2019-05-16T16:07:07.696Z,68.19
2019-05-16T16:11:11.855Z,69.19
2019-05-16T16:15:17.362Z,69.14
2019-05-16T16:19:22.433Z,69.88
2019-05-16T16:23:27.538Z,70.22
2019-05-16T16:27:32.392Z,69.86
2019-05-16T16:31:38.357Z,69.73
2019-05-16T16:35:43.249Z,70.76
2019-05-16T16:39:48.149Z,71.87
2019-05-16T16:43:53.036Z,72.30
2019-05-16T16:47:57.929Z,72.29
2019-05-16T16:52:02.830Z,72.59
2019-05-16T16:56:07.824Z,71.98
2019-05-16T17:00:17.504Z,71.86
2019-05-16T17:04:21.411Z,72.40
2019-05-16T17:08:27.211Z,72.06
2019-05-16T17:12:32.394Z,71.87
2019-05-16T17:16:37.901Z,72.33
2019-05-16T17:20:42.863Z,72.88
2019-05-16T17:24:47.808Z,73.67
2019-05-16T17:28:52.695Z,73.87
2019-05-16T17:32:57.590Z,74.86
2019-05-16T17:37:02.482Z,75.04
2019-05-16T17:41:07.789Z,75.20
2019-05-16T17:45:13.744Z,75.83
2019-05-16T17:49:18.866Z,75.96
2019-05-16T17:53:26.647Z,76.40
2019-05-16T17:57:31.403Z,76.22
2019-05-16T18:01:36.298Z,74.96
2019-05-16T18:05:41.258Z,74.45
2019-05-16T18:09:48.332Z,74.41
2019-05-16T18:13:52.722Z,75.20
2019-05-16T18:17:57.615Z,75.27
2019-05-16T18:22:02.503Z,75.70
2019-05-16T18:26:07.915Z,76.25
2019-05-16T18:30:13.564Z,77.27
2019-05-16T18:34:18.454Z,77.30
2019-05-16T18:38:23.349Z,77.30
2019-05-16T18:42:28.269Z,78.00
2019-05-16T18:46:33.158Z,77.71
2019-05-16T18:50:38.383Z,79.14
2019-05-16T18:54:43.334Z,79.93
2019-05-16T18:58:48.226Z,80.83
2019-05-16T19:02:53.141Z,82.21
2019-05-16T19:06:59.648Z,83.53
2019-05-16T19:11:07.469Z,84.97
2019-05-16T19:15:12.237Z,86.71
2019-05-16T19:19:17.141Z,88.41
2019-05-16T19:23:22.030Z,89.07
2019-05-16T19:27:26.935Z,90.05
2019-05-16T19:31:31.816Z,90.63
2019-05-16T19:35:37.079Z,90.62
2019-05-16T19:39:41.966Z,91.67
2019-05-16T19:43:46.860Z,91.45
2019-05-16T19:47:51.757Z,91.50
2019-05-16T19:51:56.708Z,91.42
2019-05-16T19:56:01.525Z,91.25
2019-05-16T20:00:08.688Z,91.40
2019-05-16T20:04:16.093Z,91.31
2019-05-16T20:08:20.162Z,92.17
2019-05-16T20:12:26.277Z,92.10
2019-05-16T20:16:31.212Z,92.70
2019-05-16T20:20:37.278Z,93.31
2019-05-16T20:24:43.362Z,93.52
2019-05-16T20:28:48.232Z,93.86
2019-05-16T20:32:53.120Z,93.94
2019-05-16T20:36:58.008Z,93.95
2019-05-16T20:41:02.955Z,94.30
2019-05-16T20:45:09.305Z,94.19
2019-05-16T20:49:16.640Z,94.01
2019-05-16T20:53:20.743Z,94.08
2019-05-16T20:57:26.537Z,94.34
2019-05-16T21:01:31.683Z,94.36
2019-05-16T21:05:38.335Z,94.11
2019-05-16T21:09:43.151Z,94.20
2019-05-16T21:13:49.063Z,94.98
2019-05-16T21:17:54.000Z,94.14
2019-05-16T21:21:58.887Z,94.78
2019-05-16T21:26:03.847Z,94.74
2019-05-16T21:30:09.381Z,94.08
2019-05-16T21:34:16.096Z,93.78
2019-05-16T21:38:23.422Z,93.73
2019-05-16T21:42:28.296Z,93.45
2019-05-16T21:46:33.182Z,92.11
2019-05-16T21:50:38.067Z,91.58
2019-05-16T21:54:44.024Z,92.09
2019-05-16T21:58:48.910Z,91.90
2019-05-16T22:02:53.867Z,91.67
2019-05-16T22:06:58.962Z,90.43
2019-05-16T22:11:03.914Z,89.65
2019-05-16T22:15:10.467Z,89.50
2019-05-16T22:19:17.019Z,89.62
2019-05-16T22:23:21.923Z,89.57
2019-05-16T22:27:27.030Z,89.62
2019-05-16T22:31:33.941Z,89.92
2019-05-16T22:35:38.544Z,90.37
2019-05-16T22:39:43.434Z,91.25
2019-05-16T22:43:48.329Z,91.07
2019-05-16T22:47:53.210Z,91.31
2019-05-16T22:51:58.095Z,90.95
2019-05-16T22:56:02.977Z,90.74
2019-05-16T23:00:10.250Z,90.78
2019-05-16T23:04:16.911Z,90.95
2019-05-16T23:08:21.805Z,91.45
2019-05-16T23:12:26.755Z,91.71
2019-05-16T23:16:31.569Z,92.59
2019-05-16T23:20:37.160Z,92.18
2019-05-16T23:24:42.192Z,92.16
2019-05-16T23:28:47.295Z,92.86
2019-05-16T23:32:52.244Z,93.39
2019-05-16T23:36:57.176Z,93.37
2019-05-16T23:41:02.012Z,92.76
2019-05-16T23:45:08.946Z,93.06
2019-05-16T23:49:16.784Z,93.15
2019-05-16T23:53:21.553Z,92.62
2019-05-16T23:57:27.502Z,93.44
